Terminal Aerodrome Forecast
Issued by NWS King Salmon, AK

Home | Current Version | Previous Version | Text Only | Print | Product List | Glossary On
Versions: 1 2 3 4 5 6 7 8 9 10 11 12 13 14 15 16 17 18 19
000
FTAK31 PANC 241730
TAFAKN
TAF
PAKN 241730Z 2418/2518 08010KT P6SM BKN100
     FM242000 10010G18KT P6SM VCSH SCT060 BKN100
     FM250500 10008KT P6SM SCT050 BKN080
     FM250800 VRB06KT P6SM SCT080=

USA.gov is the U.S. government's official web portal to all federal, state and local government web resources and services.